Time;durP1;ratioP1;P1;durP2;ratioP2;P2;SDS_P1;SDS_P2;PMS_P1;PMS_P2;Temp;Humidity;BMP_temperature;BMP_pressure;BME280_temperature;BME280_humidity;BME280_pressure;Samples;Min_cycle;Max_cycle;Signal;HPM_P1;HPM_P2
2022/12/22 03:26:26;;;;;;;10.00;4.95;;;22.00;99.90;;;;;;5032258;28;20028;-52
2022/12/22 03:28:52;;;;;;;8.00;5.10;;;22.00;99.90;;;;;;5031949;28;20026;-51
2022/12/22 03:31:18;;;;;;;7.32;4.60;;;22.00;99.90;;;;;;5014789;28;20763;-51
2022/12/22 03:33:44;;;;;;;8.80;4.90;;;22.00;99.90;;;;;;5014406;28;20033;-52
2022/12/22 03:36:10;;;;;;;8.43;4.50;;;22.00;99.90;;;;;;5031826;28;20018;-51
2022/12/22 03:38:36;;;;;;;6.78;4.10;;;22.00;99.90;;;;;;5031964;28;20060;-52
2022/12/22 03:41:02;;;;;;;7.88;4.90;;;22.00;99.90;;;;;;5031951;28;20460;-52
2022/12/22 03:46:30;;;;;;;7.95;4.65;;;21.90;99.90;;;;;;5032182;28;20060;-51
2022/12/22 03:49:09;;;;;;;9.35;5.10;;;21.90;99.90;;;;;;5014192;28;20045;-50
2022/12/22 03:51:44;;;;;;;4.55;3.10;;;21.90;99.90;;;;;;5031751;28;20037;-50
2022/12/22 03:54:12;;;;;;;6.88;4.40;;;21.90;99.90;;;;;;5031911;28;20346;-51
2022/12/22 03:56:38;;;;;;;7.22;5.00;;;21.90;99.90;;;;;;5031736;28;20025;-51
2022/12/22 03:59:05;;;;;;;8.25;4.68;;;21.90;99.90;;;;;;5032185;28;20392;-50
2022/12/22 04:01:33;;;;;;;7.65;4.47;;;21.90;99.90;;;;;;5031474;28;20065;-50
2022/12/22 04:03:58;;;;;;;7.78;4.80;;;21.90;99.90;;;;;;5031710;28;20032;-50
2022/12/22 04:06:24;;;;;;;8.95;5.70;;;21.90;99.90;;;;;;5013731;28;20387;-51
2022/12/22 04:08:50;;;;;;;7.60;4.43;;;21.90;99.90;;;;;;5031921;28;20116;-51
2022/12/22 04:14:02;;;;;;;7.72;3.85;;;21.90;99.90;;;;;;5031576;28;20083;-50
2022/12/22 04:16:28;;;;;;;8.07;5.72;;;21.90;99.90;;;;;;5031475;28;20024;-51
2022/12/22 04:18:54;;;;;;;7.68;5.03;;;21.90;99.90;;;;;;5031342;28;20045;-50
2022/12/22 04:21:20;;;;;;;7.63;5.28;;;21.90;99.90;;;;;;5031752;28;20025;-50
2022/12/22 04:23:45;;;;;;;8.65;5.35;;;21.90;99.90;;;;;;5031527;28;20034;-51
2022/12/22 04:26:11;;;;;;;8.60;4.63;;;21.90;99.90;;;;;;5031518;28;20033;-51
2022/12/22 04:28:37;;;;;;;8.15;4.90;;;21.90;99.90;;;;;;5033788;28;20471;-52
2022/12/22 04:31:03;;;;;;;7.95;5.18;;;21.90;99.90;;;;;;5034953;28;20072;-51
2022/12/22 04:33:28;;;;;;;7.95;5.15;;;21.90;99.90;;;;;;5034834;28;20479;-52
2022/12/22 04:35:54;;;;;;;7.13;4.63;;;21.90;99.90;;;;;;5034967;28;20100;-51
2022/12/22 04:38:20;;;;;;;7.85;4.43;;;21.90;99.90;;;;;;5034902;28;20033;-51
2022/12/22 04:40:46;;;;;;;9.40;5.05;;;21.90;99.90;;;;;;5034707;28;20127;-51
2022/12/22 04:43:11;;;;;;;7.72;5.13;;;21.90;99.90;;;;;;5034745;28;20026;-51
2022/12/22 04:45:37;;;;;;;8.32;5.47;;;21.90;99.90;;;;;;5034697;28;20026;-51
2022/12/22 04:48:03;;;;;;;7.55;4.75;;;21.90;99.90;;;;;;5034399;28;20048;-50
2022/12/22 04:50:29;;;;;;;8.45;5.22;;;21.90;99.90;;;;;;5034482;28;20129;-50
2022/12/22 04:52:54;;;;;;;8.02;4.90;;;21.90;99.90;;;;;;5034584;28;20096;-51
2022/12/22 04:55:20;;;;;;;6.07;4.25;;;21.90;99.90;;;;;;5034822;28;20029;-50
2022/12/22 04:57:46;;;;;;;7.53;4.70;;;21.90;99.90;;;;;;5034422;28;20025;-50
2022/12/22 05:00:13;;;;;;;8.40;5.25;;;21.80;99.90;;;;;;5040112;22;20045;-53
2022/12/22 05:02:38;;;;;;;9.18;4.72;;;21.90;99.90;;;;;;5054823;28;20060;-53
2022/12/22 05:05:04;;;;;;;9.75;4.65;;;21.90;99.90;;;;;;5036522;28;20110;-53
2022/12/22 05:07:30;;;;;;;6.45;4.07;;;21.90;99.90;;;;;;5054333;28;20025;-53
2022/12/22 05:09:56;;;;;;;9.77;4.95;;;21.80;99.90;;;;;;5054278;28;20025;-53
2022/12/22 05:15:06;;;;;;;6.75;4.60;;;21.80;99.90;;;;;;5054213;28;20036;-53
2022/12/22 05:17:32;;;;;;;7.95;4.53;;;21.80;99.90;;;;;;5019716;28;20033;-53
2022/12/22 05:19:58;;;;;;;7.75;4.85;;;21.80;99.90;;;;;;5036257;28;20436;-53
2022/12/22 05:22:23;;;;;;;7.50;4.47;;;21.80;99.90;;;;;;5036692;28;20479;-53
2022/12/22 05:24:49;;;;;;;7.13;4.28;;;21.80;99.90;;;;;;5054190;28;20470;-53
2022/12/22 05:27:16;;;;;;;8.18;4.80;;;21.80;99.90;;;;;;5054069;28;20068;-53
2022/12/22 05:29:42;;;;;;;9.23;4.63;;;21.80;99.90;;;;;;5053993;28;20032;-53
2022/12/22 05:32:08;;;;;;;7.47;4.28;;;21.80;99.90;;;;;;5054012;28;20615;-53
2022/12/22 05:34:33;;;;;;;10.95;4.95;;;21.80;99.90;;;;;;5053931;28;20393;-53
2022/12/22 05:36:59;;;;;;;9.82;4.70;;;21.80;99.90;;;;;;5019433;28;20044;-53
2022/12/22 05:39:25;;;;;;;9.43;4.97;;;21.80;99.90;;;;;;5052740;28;20103;-53
2022/12/22 05:41:51;;;;;;;6.50;4.47;;;21.70;99.90;;;;;;5036015;28;20028;-53
2022/12/22 05:44:16;;;;;;;9.18;4.72;;;21.80;99.90;;;;;;5053706;28;20021;-53
2022/12/22 05:46:42;;;;;;;8.52;4.63;;;21.80;99.90;;;;;;5053483;28;20017;-53
2022/12/22 05:49:08;;;;;;;7.30;4.57;;;21.70;99.90;;;;;;5053456;28;20028;-53
2022/12/22 05:51:34;;;;;;;8.60;4.88;;;21.70;99.90;;;;;;5035496;28;20082;-53
2022/12/22 05:53:59;;;;;;;9.40;5.57;;;21.70;99.90;;;;;;5053454;28;20040;-54
2022/12/22 05:56:25;;;;;;;6.80;4.30;;;21.70;99.90;;;;;;5053530;28;20057;-53
2022/12/22 05:58:51;;;;;;;7.82;4.78;;;21.70;99.90;;;;;;5053432;28;20433;-53
2022/12/22 06:01:17;;;;;;;7.20;3.90;;;21.70;99.90;;;;;;5053144;28;20049;-52
2022/12/22 06:03:42;;;;;;;6.40;3.92;;;21.70;99.90;;;;;;5053162;28;20021;-53
2022/12/22 06:06:08;;;;;;;8.75;4.28;;;21.70;99.90;;;;;;5053149;28;20100;-53
2022/12/22 06:08:34;;;;;;;8.57;4.43;;;21.70;99.90;;;;;;5053223;28;20056;-52
2022/12/22 06:11:00;;;;;;;8.25;4.35;;;21.70;99.90;;;;;;5035098;28;20021;-53
2022/12/22 06:13:26;;;;;;;7.25;4.47;;;21.70;99.90;;;;;;5053095;28;20060;-54
2022/12/22 06:15:52;;;;;;;7.05;4.80;;;21.70;99.90;;;;;;5053068;28;20013;-52
2022/12/22 06:18:17;;;;;;;7.25;4.50;;;21.70;99.90;;;;;;5051517;28;20102;-53
2022/12/22 06:20:45;;;;;;;5.75;3.80;;;21.60;99.90;;;;;;5035107;28;20021;-54
2022/12/22 06:23:11;;;;;;;5.55;4.22;;;21.60;99.90;;;;;;5052802;28;20028;-54
2022/12/22 06:25:37;;;;;;;7.53;4.47;;;21.60;99.90;;;;;;5052668;28;20107;-54
2022/12/22 06:28:03;;;;;;;10.23;5.28;;;21.60;99.90;;;;;;5052633;28;20100;-54
2022/12/22 06:30:29;;;;;;;7.53;3.95;;;21.60;99.90;;;;;;5034883;28;20057;-54
2022/12/22 06:32:54;;;;;;;9.20;4.35;;;21.60;99.90;;;;;;5052750;28;20029;-54
2022/12/22 06:35:20;;;;;;;6.00;3.72;;;21.60;99.90;;;;;;5034774;28;20035;-54
2022/12/22 06:37:46;;;;;;;7.63;4.65;;;21.60;99.90;;;;;;5034678;28;20108;-54
2022/12/22 06:40:12;;;;;;;6.95;4.05;;;21.60;99.90;;;;;;5052481;28;20029;-54
2022/12/22 06:45:22;;;;;;;10.27;4.88;;;21.60;99.90;;;;;;5052449;28;20032;-53
2022/12/22 06:47:47;;;;;;;9.70;4.40;;;21.60;99.90;;;;;;5052465;28;20463;-54
2022/12/22 06:50:13;;;;;;;7.97;4.53;;;21.60;99.90;;;;;;5034290;28;20471;-54
2022/12/22 06:52:39;;;;;;;8.07;4.47;;;21.60;99.90;;;;;;5052404;28;20028;-53
2022/12/22 06:55:05;;;;;;;7.75;4.60;;;21.60;99.90;;;;;;5052219;28;20028;-53
2022/12/22 06:57:31;;;;;;;7.50;4.57;;;21.60;99.90;;;;;;5052225;28;20062;-53
2022/12/22 06:59:57;;;;;;;7.72;4.40;;;21.60;99.90;;;;;;5052398;28;20325;-53
2022/12/22 07:02:23;;;;;;;7.70;4.15;;;21.60;99.90;;;;;;5034483;28;20461;-53
2022/12/22 07:04:48;;;;;;;9.90;4.55;;;21.60;99.90;;;;;;5052199;28;20029;-53
2022/12/22 07:07:14;;;;;;;5.90;3.33;;;21.60;99.90;;;;;;5034384;28;20025;-53
2022/12/22 07:09:40;;;;;;;7.88;4.28;;;21.60;99.90;;;;;;5034406;28;20155;-53
2022/12/22 07:12:06;;;;;;;8.95;4.72;;;21.50;99.90;;;;;;5052020;28;20021;-54
2022/12/22 07:14:31;;;;;;;6.88;4.10;;;21.50;99.90;;;;;;5034186;28;20039;-54
2022/12/22 07:16:57;;;;;;;8.68;4.15;;;21.60;99.90;;;;;;5052281;28;20421;-54
2022/12/22 07:19:23;;;;;;;8.20;3.85;;;21.50;99.90;;;;;;5051938;28;20025;-54
2022/12/22 07:21:50;;;;;;;10.15;4.60;;;21.50;99.90;;;;;;5052061;28;20393;-54
2022/12/22 07:24:21;;;;;;;8.37;4.40;;;21.50;99.90;;;;;;5051911;28;20036;-53
2022/12/22 07:26:48;;;;;;;6.10;4.00;;;21.50;99.90;;;;;;5051905;28;20246;-54
2022/12/22 07:29:13;;;;;;;6.32;4.38;;;21.50;99.90;;;;;;5051888;28;20425;-54
2022/12/22 07:31:39;;;;;;;6.25;3.83;;;21.50;99.90;;;;;;5051591;28;20041;-54
2022/12/22 07:34:05;;;;;;;6.50;4.18;;;21.50;99.90;;;;;;5052039;28;20072;-54
2022/12/22 07:36:31;;;;;;;7.40;4.65;;;21.50;99.90;;;;;;5051729;28;20033;-54
2022/12/22 07:38:56;;;;;;;8.10;4.60;;;21.50;99.90;;;;;;5051897;28;20086;-54
2022/12/22 07:44:06;;;;;;;8.95;4.65;;;21.50;99.90;;;;;;5051991;28;20036;-53
2022/12/22 07:46:37;;;;;;;9.68;4.68;;;21.50;99.90;;;;;;5051771;28;20021;-53
2022/12/22 07:51:51;;;;;;;7.68;4.10;;;21.50;99.90;;;;;;5051924;28;20074;-54
2022/12/22 07:54:17;;;;;;;7.78;4.28;;;21.50;99.90;;;;;;5051572;28;20025;-54
2022/12/22 07:56:44;;;;;;;8.65;4.78;;;21.60;99.90;;;;;;5051632;28;20021;-54
2022/12/22 07:59:11;;;;;;;7.63;4.75;;;21.60;99.90;;;;;;5051468;28;20037;-54
2022/12/22 08:01:38;;;;;;;7.50;4.55;;;21.60;99.90;;;;;;5051384;28;20045;-53
2022/12/22 08:04:04;;;;;;;9.45;4.47;;;21.60;99.90;;;;;;5054558;28;20029;-53
2022/12/22 08:06:32;;;;;;;6.75;4.93;;;21.60;99.90;;;;;;5055645;28;20025;-54
2022/12/22 08:08:58;;;;;;;7.03;3.95;;;21.60;99.90;;;;;;5055449;28;20048;-55
2022/12/22 08:11:24;;;;;;;8.15;4.43;;;21.70;99.90;;;;;;5055291;28;20025;-53
2022/12/22 08:13:50;;;;;;;7.15;4.38;;;21.70;99.90;;;;;;5055202;28;20158;-53
2022/12/22 08:16:16;;;;;;;9.95;4.90;;;21.70;99.90;;;;;;5054963;28;20021;-53
2022/12/22 08:18:43;;;;;;;7.53;4.25;;;21.70;99.90;;;;;;5054941;28;20029;-53
2022/12/22 08:21:09;;;;;;;6.50;4.43;;;21.70;99.90;;;;;;5055195;28;20462;-53
2022/12/22 08:23:35;;;;;;;11.05;5.35;;;21.70;99.90;;;;;;5055060;28;20143;-54
2022/12/22 08:26:17;;;;;;;7.95;4.43;;;21.80;99.90;;;;;;5055440;28;20029;-53
2022/12/22 08:28:54;;;;;;;8.07;4.18;;;21.80;99.90;;;;;;5055080;28;20032;-53
2022/12/22 08:31:21;;;;;;;7.68;4.55;;;21.80;99.90;;;;;;5054793;28;20025;-53
2022/12/22 08:33:47;;;;;;;8.70;5.00;;;21.80;99.90;;;;;;5037041;28;20029;-53
2022/12/22 08:36:14;;;;;;;13.30;4.80;;;21.80;99.90;;;;;;5054838;28;20378;-53
2022/12/22 08:38:41;;;;;;;10.43;4.95;;;21.90;99.90;;;;;;5054741;28;20032;-53
2022/12/22 08:41:09;;;;;;;7.65;5.00;;;21.90;99.90;;;;;;5054917;28;20018;-53
2022/12/22 08:43:34;;;;;;;9.57;5.07;;;21.90;99.90;;;;;;5054639;28;20116;-53
2022/12/22 08:46:00;;;;;;;8.88;4.85;;;21.90;99.90;;;;;;5054972;28;20104;-53
2022/12/22 08:48:26;;;;;;;9.77;4.68;;;21.90;99.90;;;;;;5054731;28;20025;-53
2022/12/22 08:50:52;;;;;;;8.95;5.45;;;21.90;99.90;;;;;;5054590;28;20029;-53
2022/12/22 08:53:17;;;;;;;11.68;5.78;;;21.90;99.90;;;;;;5054635;28;20048;-53
2022/12/22 08:55:54;;;;;;;11.02;5.30;;;22.00;99.90;;;;;;5054562;28;20363;-54
2022/12/22 08:58:21;;;;;;;7.88;5.22;;;22.00;99.90;;;;;;5054359;28;20470;-53
2022/12/22 09:00:47;;;;;;;10.27;5.53;;;22.00;99.90;;;;;;5054313;28;20049;-53
2022/12/22 09:03:13;;;;;;;8.60;5.63;;;22.00;99.90;;;;;;5054351;28;20074;-53
2022/12/22 09:05:40;;;;;;;12.57;6.15;;;22.00;99.90;;;;;;5036451;28;20077;-53
2022/12/22 09:08:06;;;;;;;11.00;6.05;;;22.10;99.90;;;;;;5054265;28;20025;-53
2022/12/22 09:10:32;;;;;;;11.27;6.30;;;22.10;99.90;;;;;;5054307;28;20033;-54
2022/12/22 09:12:58;;;;;;;10.40;6.10;;;22.10;99.90;;;;;;5054106;28;20084;-53
2022/12/22 09:15:24;;;;;;;15.20;7.72;;;22.10;99.90;;;;;;5053900;28;20033;-54
2022/12/22 09:17:50;;;;;;;16.98;6.93;;;22.20;99.90;;;;;;5053867;28;20029;-53
2022/12/22 09:20:16;;;;;;;13.18;6.63;;;22.20;99.90;;;;;;5054048;28;20025;-53
2022/12/22 09:22:42;;;;;;;13.50;6.70;;;22.30;99.90;;;;;;5036018;28;20116;-53
2022/12/22 09:25:08;;;;;;;14.75;7.20;;;22.30;99.90;;;;;;5053931;28;20522;-53
2022/12/22 09:27:33;;;;;;;14.57;8.02;;;22.30;99.90;;;;;;5054123;28;20027;-53
2022/12/22 09:29:59;;;;;;;15.23;7.68;;;22.30;99.90;;;;;;5036206;28;20033;-53
2022/12/22 09:32:27;;;;;;;13.38;7.03;;;22.40;99.90;;;;;;5053971;28;20405;-53
2022/12/22 09:34:52;;;;;;;17.75;7.70;;;22.40;99.90;;;;;;5053626;28;20066;-53
2022/12/22 09:37:18;;;;;;;14.77;8.05;;;22.40;99.90;;;;;;5053723;28;20437;-53
2022/12/22 09:39:45;;;;;;;17.15;8.80;;;22.50;99.90;;;;;;5053567;28;20064;-53
2022/12/22 09:42:19;;;;;;;18.02;8.77;;;22.50;99.90;;;;;;5053453;28;20482;-53
2022/12/22 09:44:49;;;;;;;15.70;9.85;;;22.50;99.90;;;;;;5053745;28;20075;-53
2022/12/22 09:47:37;;;;;;;17.58;9.60;;;22.50;99.90;;;;;;5053432;28;20025;-53
2022/12/22 09:50:05;;;;;;;18.67;9.63;;;22.60;99.90;;;;;;5053554;28;20475;-53
2022/12/22 09:52:34;;;;;;;19.00;10.30;;;22.60;99.90;;;;;;5053432;28;20032;-53
2022/12/22 09:55:00;;;;;;;17.90;10.32;;;22.60;99.90;;;;;;5053367;28;20031;-53
2022/12/22 09:57:30;;;;;;;15.77;9.45;;;22.70;99.90;;;;;;5053279;28;20017;-52
2022/12/22 10:00:05;;;;;;;18.52;9.93;;;22.70;99.90;;;;;;5026405;28;20049;-53
2022/12/22 10:02:39;;;;;;;17.75;9.90;;;22.70;99.90;;;;;;5013397;28;20018;-53
2022/12/22 10:05:20;;;;;;;17.42;9.95;;;22.80;99.90;;;;;;5028937;28;20029;-53
2022/12/22 10:07:46;;;;;;;18.95;10.75;;;22.90;99.90;;;;;;5013489;28;20022;-53
2022/12/22 10:10:12;;;;;;;19.50;10.77;;;22.90;99.90;;;;;;5013367;28;20365;-53
2022/12/22 10:12:38;;;;;;;18.35;10.13;;;22.90;99.90;;;;;;5013474;28;20467;-54
2022/12/22 10:15:08;;;;;;;21.48;10.77;;;22.90;99.90;;;;;;5013283;28;20030;-53
2022/12/22 10:17:34;;;;;;;18.60;10.35;;;23.00;99.90;;;;;;5013518;28;20476;-53
2022/12/22 10:20:19;;;;;;;19.75;11.05;;;23.00;99.90;;;;;;5012975;28;20033;-53
2022/12/22 10:22:47;;;;;;;19.58;11.63;;;23.10;99.90;;;;;;5013231;28;20044;-53
2022/12/22 10:25:30;;;;;;;21.92;10.90;;;23.10;99.90;;;;;;5012474;28;20484;-53
2022/12/22 10:27:58;;;;;;;19.48;10.73;;;23.20;99.90;;;;;;5013167;28;20037;-53
2022/12/22 10:30:31;;;;;;;18.85;10.32;;;23.20;99.90;;;;;;5011700;28;20068;-53
2022/12/22 10:33:04;;;;;;;19.90;10.77;;;23.30;99.90;;;;;;5013034;28;20061;-53
2022/12/22 10:35:42;;;;;;;19.02;11.48;;;23.30;99.90;;;;;;5012926;28;20099;-53
2022/12/22 10:38:27;;;;;;;20.35;10.68;;;23.30;99.90;;;;;;5012997;28;20030;-53
2022/12/22 10:41:00;;;;;;;18.33;10.45;;;23.40;99.90;;;;;;5012864;28;20036;-53
2022/12/22 10:43:36;;;;;;;22.02;12.18;;;23.40;99.90;;;;;;5012819;28;20022;-53
2022/12/22 10:46:03;;;;;;;19.48;11.15;;;23.40;99.90;;;;;;5012859;28;20030;-53
2022/12/22 10:48:38;;;;;;;15.00;9.43;;;23.50;99.90;;;;;;5011440;28;20105;-56
2022/12/22 10:51:07;;;;;;;18.95;10.13;;;23.60;99.90;;;;;;5012609;28;20488;-54
2022/12/22 10:53:49;;;;;;;21.35;11.38;;;23.60;99.90;;;;;;5012686;28;20026;-53
2022/12/22 10:56:30;;;;;;;15.35;10.13;;;23.60;99.90;;;;;;5012665;28;20053;-53
2022/12/22 10:59:14;;;;;;;21.52;11.32;;;23.70;99.90;;;;;;5012552;28;20034;-53
2022/12/22 11:01:40;;;;;;;18.23;10.60;;;23.70;99.90;;;;;;5052075;28;20612;-53
2022/12/22 11:04:21;;;;;;;17.85;10.88;;;23.70;99.90;;;;;;5052476;28;20025;-53
2022/12/22 11:06:48;;;;;;;17.27;10.32;;;23.80;99.90;;;;;;5052096;28;20032;-53
2022/12/22 11:09:14;;;;;;;16.98;9.95;;;23.80;99.90;;;;;;5052193;28;20024;-57
2022/12/22 11:11:51;;;;;;;17.60;11.35;;;23.90;99.90;;;;;;5052351;28;20055;-53
2022/12/22 11:14:33;;;;;;;17.55;10.30;;;23.90;99.90;;;;;;5051989;28;20031;-53
2022/12/22 11:17:21;;;;;;;19.25;10.20;;;23.90;99.90;;;;;;5051999;28;20075;-53
2022/12/22 11:19:53;;;;;;;16.48;9.90;;;24.00;99.90;;;;;;5051775;28;20033;-53
2022/12/22 11:22:36;;;;;;;18.52;11.07;;;24.00;99.90;;;;;;5051927;28;20383;-54
2022/12/22 11:25:28;;;;;;;18.23;10.13;;;24.00;99.90;;;;;;5052002;28;20372;-54
2022/12/22 11:28:14;;;;;;;18.15;9.68;;;24.10;99.90;;;;;;5023529;28;20033;-54
2022/12/22 11:30:59;;;;;;;20.23;9.48;;;24.10;99.90;;;;;;5052106;28;20029;-54
2022/12/22 11:33:43;;;;;;;15.07;9.93;;;24.10;99.90;;;;;;5051845;28;20021;-54
2022/12/22 11:36:22;;;;;;;17.48;9.10;;;24.20;99.90;;;;;;5052027;28;20078;-54
2022/12/22 11:39:06;;;;;;;20.38;9.63;;;24.20;99.90;;;;;;5055772;28;20382;-54
2022/12/22 11:42:04;;;;;;;15.85;8.35;;;24.30;99.90;;;;;;5055824;28;20553;-54
2022/12/22 11:44:50;;;;;;;20.05;9.63;;;24.30;99.90;;;;;;5037940;28;20498;-53
2022/12/22 11:47:28;;;;;;;17.70;9.73;;;24.30;99.90;;;;;;5055775;28;20485;-54
2022/12/22 11:50:32;;;;;;;9.50;4.32;;;24.40;99.90;;;;;;5037718;28;20360;-53
2022/12/22 11:53:04;;;;;;;13.63;3.47;;;24.30;99.90;;;;;;5047257;28;20067;-53
2022/12/22 11:55:37;;;;;;;7.45;3.25;;;24.30;99.90;;;;;;5055486;28;20033;-53
2022/12/22 11:58:41;;;;;;;12.75;6.25;;;24.30;99.90;;;;;;5055588;28;20391;-53
2022/12/22 12:01:28;;;;;;;7.90;3.33;;;24.30;99.90;;;;;;4993917;28;20053;-52
2022/12/22 12:03:59;;;;;;;7.85;4.35;;;24.30;99.90;;;;;;5051705;28;20398;-53
2022/12/22 12:06:46;;;;;;;6.10;2.60;;;24.30;99.90;;;;;;5055405;28;20546;-53
2022/12/22 12:09:26;;;;;;;6.03;2.07;;;24.30;99.90;;;;;;5055662;28;20025;-53
2022/12/22 12:12:12;;;;;;;14.32;8.57;;;24.20;99.90;;;;;;5053644;28;20486;-52
2022/12/22 12:14:45;;;;;;;21.27;15.10;;;24.20;99.90;;;;;;5054691;28;20036;-53
2022/12/22 12:18:08;;;;;;;9.38;6.03;;;24.20;99.90;;;;;;5055380;28;20021;-52
2022/12/22 12:20:55;;;;;;;6.70;5.45;;;24.20;99.90;;;;;;4993522;28;20042;-52
2022/12/22 12:23:23;;;;;;;3.15;1.70;;;24.20;99.90;;;;;;4993698;28;20029;-56
2022/12/22 12:26:26;;;;;;;4.07;1.75;;;24.20;99.90;;;;;;5038944;28;20119;-55
2022/12/22 12:29:23;;;;;;;7.00;4.80;;;24.20;99.90;;;;;;5053363;28;20110;-55
2022/12/22 12:32:12;;;;;;;22.48;10.80;;;24.20;99.90;;;;;;5025349;28;20040;-54
2022/12/22 12:34:44;;;;;;;10.68;6.97;;;24.20;99.90;;;;;;5038448;28;20042;-55
2022/12/22 12:37:27;;;;;;;4.18;2.10;;;24.20;99.90;;;;;;5053955;28;20042;-55
2022/12/22 12:40:02;;;;;;;5.95;3.15;;;24.20;99.90;;;;;;5054882;28;20119;-56
2022/12/22 12:42:41;;;;;;;6.00;1.67;;;24.20;99.90;;;;;;5054478;28;20048;-57
2022/12/22 12:45:40;;;;;;;5.90;3.42;;;24.20;99.90;;;;;;5054672;28;20109;-57
2022/12/22 12:48:22;;;;;;;4.03;2.45;;;24.20;99.90;;;;;;5035753;28;20107;-56
2022/12/22 12:50:50;;;;;;;7.03;2.53;;;24.20;99.90;;;;;;5054034;28;20029;-56
2022/12/22 12:53:17;;;;;;;8.23;2.20;;;24.20;99.90;;;;;;5053035;28;20039;-56
2022/12/22 12:55:50;;;;;;;5.93;2.33;;;24.30;99.90;;;;;;5054251;28;20048;-57
2022/12/22 12:58:34;;;;;;;10.23;2.10;;;24.30;99.90;;;;;;5053781;28;20355;-56
2022/12/22 13:01:10;;;;;;;6.50;2.05;;;24.30;99.90;;;;;;5051558;28;20402;-55
2022/12/22 13:03:41;;;;;;;4.45;1.50;;;24.30;99.90;;;;;;5053619;28;20037;-56
2022/12/22 13:06:10;;;;;;;2.80;1.63;;;24.40;99.90;;;;;;5053721;28;20823;-57
2022/12/22 13:08:49;;;;;;;8.25;2.10;;;24.40;99.90;;;;;;5053265;28;20037;-57
2022/12/22 13:11:15;;;;;;;3.95;2.20;;;24.50;99.90;;;;;;5051843;28;20032;-57
2022/12/22 13:13:41;;;;;;;5.07;2.30;;;24.50;99.90;;;;;;5053354;28;20027;-57
2022/12/22 13:16:06;;;;;;;5.38;2.80;;;24.50;99.90;;;;;;5053085;28;20050;-58
2022/12/22 13:18:32;;;;;;;5.10;3.40;;;24.60;99.90;;;;;;5053577;28;20391;-57
2022/12/22 13:20:58;;;;;;;6.70;3.22;;;24.60;99.90;;;;;;5053194;28;20032;-56
2022/12/22 13:23:35;;;;;;;9.18;3.25;;;24.70;99.90;;;;;;5050699;28;20056;-57
2022/12/22 13:26:16;;;;;;;10.85;3.85;;;24.70;99.90;;;;;;5049207;28;20021;-61
2022/12/22 13:28:47;;;;;;;10.30;4.20;;;24.80;99.90;;;;;;5046228;28;20024;-59
2022/12/22 13:31:19;;;;;;;6.82;4.00;;;24.80;99.90;;;;;;5052006;28;20393;-58
2022/12/22 13:33:47;;;;;;;11.05;6.32;;;24.80;99.90;;;;;;5046148;28;20033;-59
2022/12/22 13:36:19;;;;;;;10.02;6.00;;;24.90;99.90;;;;;;5052799;28;20021;-58
2022/12/22 13:38:45;;;;;;;9.63;7.03;;;24.90;99.90;;;;;;5051219;28;20082;-57
2022/12/22 13:41:21;;;;;;;10.43;5.88;;;24.90;99.90;;;;;;5046597;28;20028;-56
2022/12/22 13:43:53;;;;;;;11.45;6.32;;;25.00;99.90;;;;;;5054305;28;20036;-57
2022/12/22 13:46:19;;;;;;;14.93;6.43;;;25.00;99.90;;;;;;5050136;28;20017;-58
2022/12/22 13:48:47;;;;;;;14.13;7.60;;;25.00;99.90;;;;;;5053221;28;20108;-57
2022/12/22 13:51:27;;;;;;;13.57;7.03;;;25.00;99.90;;;;;;5032870;28;20035;-57
2022/12/22 13:53:57;;;;;;;13.30;7.78;;;25.00;99.90;;;;;;5050606;28;20544;-57
2022/12/22 13:56:26;;;;;;;18.27;8.35;;;25.00;99.90;;;;;;5051597;28;20025;-58
2022/12/22 13:58:58;;;;;;;16.30;7.90;;;25.00;99.90;;;;;;5052569;28;20091;-58
2022/12/22 14:01:25;;;;;;;20.45;9.68;;;25.10;99.90;;;;;;5050046;28;20115;-59
2022/12/22 14:03:58;;;;;;;22.63;9.70;;;25.10;99.90;;;;;;5057660;28;20323;-59
2022/12/22 14:06:38;;;;;;;22.80;8.90;;;25.10;99.90;;;;;;5031512;28;20030;-57
2022/12/22 14:09:11;;;;;;;20.35;9.68;;;25.10;99.90;;;;;;5030514;28;20025;-59
2022/12/22 14:11:36;;;;;;;21.40;9.35;;;25.20;99.90;;;;;;5052385;28;20577;-57
2022/12/22 14:14:39;;;;;;;25.50;10.52;;;25.20;99.90;;;;;;5049805;28;20141;-59
2022/12/22 14:17:18;;;;;;;22.45;10.10;;;25.20;99.90;;;;;;5052315;28;20021;-60
2022/12/22 14:19:47;;;;;;;19.23;9.93;;;25.20;99.90;;;;;;5047573;28;20484;-59
2022/12/22 14:22:20;;;;;;;19.95;10.20;;;25.20;99.90;;;;;;5052558;28;20064;-59
2022/12/22 14:25:06;;;;;;;20.45;10.00;;;25.30;99.90;;;;;;5046681;28;20457;-59
2022/12/22 14:27:51;;;;;;;25.42;11.35;;;25.30;99.90;;;;;;5046255;28;20064;-59
2022/12/22 14:30:31;;;;;;;19.27;10.13;;;25.30;99.90;;;;;;5067470;28;20089;-60
2022/12/22 14:33:14;;;;;;;18.58;9.93;;;25.30;99.90;;;;;;5036579;28;20025;-59
2022/12/22 14:35:40;;;;;;;19.65;10.05;;;25.30;99.90;;;;;;5030589;28;20369;-60
2022/12/22 14:38:15;;;;;;;17.38;10.05;;;25.30;99.90;;;;;;5050734;28;20036;-59
2022/12/22 14:40:42;;;;;;;22.08;10.45;;;25.30;99.90;;;;;;5051577;28;20439;-59
2022/12/22 14:43:17;;;;;;;;;;;25.30;99.90;;;;;;5051864;28;20110;-59
2022/12/22 14:45:44;;;;;;;21.70;10.30;;;25.30;99.90;;;;;;5056412;28;19990;-60
2022/12/22 14:48:19;;;;;;;15.68;10.02;;;25.30;99.90;;;;;;5067105;28;20017;-59
2022/12/22 14:50:50;;;;;;;18.27;11.25;;;25.30;99.90;;;;;;5032849;28;20051;-59
2022/12/22 14:53:24;;;;;;;19.98;10.90;;;25.30;99.90;;;;;;5066791;28;20055;-59
2022/12/22 14:55:51;;;;;;;18.33;10.30;;;25.30;99.90;;;;;;5064303;28;20115;-59
2022/12/22 14:58:23;;;;;;;19.80;11.47;;;25.40;99.90;;;;;;5040450;28;20028;-59
2022/12/22 15:01:20;;;;;;;14.98;9.82;;;25.40;99.90;;;;;;5067377;28;20197;-59
2022/12/22 15:04:14;;;;;;;18.48;10.75;;;25.40;99.90;;;;;;5049630;28;20030;-59
2022/12/22 15:06:42;;;;;;;16.42;9.75;;;25.40;99.90;;;;;;5059503;28;20442;-59
2022/12/22 15:09:14;;;;;;;13.93;9.23;;;25.40;99.90;;;;;;5050927;28;20108;-58
2022/12/22 15:11:42;;;;;;;19.17;11.00;;;25.40;99.90;;;;;;5056381;28;20300;-58
2022/12/22 15:14:15;;;;;;;15.98;10.63;;;25.40;99.90;;;;;;5048167;28;20498;-59
2022/12/22 15:16:41;;;;;;;17.48;10.45;;;25.40;99.90;;;;;;5056029;28;20020;-58
2022/12/22 15:19:09;;;;;;;17.83;10.85;;;25.40;99.90;;;;;;5046552;28;20040;-58
2022/12/22 15:21:35;;;;;;;21.23;10.38;;;25.40;99.90;;;;;;5055523;28;20503;-57
2022/12/22 15:24:02;;;;;;;18.40;10.25;;;25.40;99.90;;;;;;5044693;28;20121;-57
2022/12/22 15:26:28;;;;;;;17.17;10.90;;;25.40;99.90;;;;;;5055756;28;20012;-58
2022/12/22 15:28:53;;;;;;;17.13;10.80;;;25.40;99.90;;;;;;5067410;28;20040;-58
2022/12/22 15:31:19;;;;;;;15.25;9.95;;;25.40;99.90;;;;;;5067977;28;20417;-58
2022/12/22 15:33:45;;;;;;;16.25;9.45;;;25.40;99.90;;;;;;5050334;28;20033;-57
2022/12/22 15:36:12;;;;;;;15.38;10.40;;;25.40;99.90;;;;;;5052567;28;20101;-58
2022/12/22 15:38:39;;;;;;;14.98;10.20;;;25.40;99.90;;;;;;5051277;28;20587;-59
2022/12/22 15:41:06;;;;;;;17.63;9.75;;;25.40;99.90;;;;;;5059877;28;20390;-58
2022/12/22 15:43:32;;;;;;;17.17;9.48;;;25.40;99.90;;;;;;5030758;28;20036;-59
2022/12/22 15:45:58;;;;;;;18.23;10.32;;;25.40;99.90;;;;;;5059402;28;20025;-58
2022/12/22 15:48:35;;;;;;;15.95;9.45;;;25.40;99.90;;;;;;5053224;28;20027;-58
2022/12/22 15:51:04;;;;;;;13.43;9.50;;;25.40;99.90;;;;;;5046326;28;20017;-58
2022/12/22 15:53:32;;;;;;;12.90;8.93;;;25.40;99.90;;;;;;5047614;28;20395;-58
2022/12/22 15:55:57;;;;;;;16.10;9.90;;;25.40;99.90;;;;;;5058592;28;20118;-58
2022/12/22 15:58:27;;;;;;;14.07;9.07;;;25.40;99.90;;;;;;5047768;28;20517;-58
2022/12/22 16:00:53;;;;;;;16.30;10.07;;;25.40;99.90;;;;;;5046578;28;20044;-58
2022/12/22 16:03:19;;;;;;;15.82;9.52;;;25.40;99.90;;;;;;5047164;28;20032;-58
2022/12/22 16:05:45;;;;;;;15.02;9.90;;;25.40;99.90;;;;;;5044420;28;20037;-58
2022/12/22 16:08:26;;;;;;;13.93;10.18;;;25.40;99.90;;;;;;5031646;28;20033;-59
2022/12/22 16:10:51;;;;;;;14.98;9.90;;;25.40;99.90;;;;;;5052528;28;20040;-58
2022/12/22 16:13:20;;;;;;;16.67;9.38;;;25.40;99.90;;;;;;5058196;28;20048;-58
2022/12/22 16:15:46;;;;;;;13.60;8.90;;;25.40;99.90;;;;;;5062189;28;20128;-59
2022/12/22 16:18:11;;;;;;;16.98;10.40;;;25.40;99.90;;;;;;5055865;28;20422;-59
2022/12/22 16:20:40;;;;;;;14.85;9.35;;;25.40;99.90;;;;;;5065781;28;20058;-59
2022/12/22 16:23:11;;;;;;;14.95;9.75;;;25.40;99.90;;;;;;5059750;28;20066;-59
2022/12/22 16:25:38;;;;;;;14.98;9.65;;;25.40;99.90;;;;;;5071031;28;20052;-60
2022/12/22 16:28:05;;;;;;;14.93;9.80;;;25.40;99.90;;;;;;5061151;28;20033;-59
2022/12/22 16:30:32;;;;;;;14.20;9.32;;;25.40;99.90;;;;;;5068024;28;20257;-59
2022/12/22 16:32:59;;;;;;;14.60;9.38;;;25.40;99.90;;;;;;5070696;28;20033;-59
2022/12/22 16:35:27;;;;;;;12.88;7.55;;;25.40;99.90;;;;;;5071565;28;20063;-58
2022/12/22 16:37:57;;;;;;;10.07;6.25;;;25.40;99.90;;;;;;5070566;28;20055;-56
2022/12/22 16:40:24;;;;;;;96.63;12.50;;;25.40;99.90;;;;;;5058391;28;20033;-55